Time;durP1;ratioP1;P1;durP2;ratioP2;P2;SDS_P1;SDS_P2;PMS_P1;PMS_P2;Temp;Humidity;BMP_temperature;BMP_pressure;BME280_temperature;BME280_humidity;BME280_pressure;Samples;Min_cycle;Max_cycle;Signal;HPM_P1;HPM_P2
2021/10/30 00:02:15;;;;;;;11.90;4.63;;;15.60;99.90;;;;;;5077308;28;20543;-81
2021/10/30 00:04:42;;;;;;;14.00;4.00;;;15.60;99.90;;;;;;5078996;28;20468;-81
2021/10/30 00:07:09;;;;;;;17.33;4.60;;;15.60;99.90;;;;;;5071577;28;20471;-84
2021/10/30 00:09:36;;;;;;;11.70;4.03;;;15.60;99.90;;;;;;5076501;28;20454;-81
2021/10/30 00:12:04;;;;;;;11.83;5.20;;;15.60;99.90;;;;;;5073353;28;20462;-83
2021/10/30 00:14:32;;;;;;;10.60;4.50;;;15.60;99.90;;;;;;5079890;28;20580;-81
2021/10/30 00:16:59;;;;;;;10.50;5.00;;;15.60;99.90;;;;;;5080936;28;20799;-81
2021/10/30 00:19:26;;;;;;;10.40;5.03;;;15.50;99.90;;;;;;5077303;28;20484;-81
2021/10/30 00:21:53;;;;;;;20.90;5.37;;;15.50;99.90;;;;;;5075696;28;21036;-81
2021/10/30 00:24:20;;;;;;;6.97;4.77;;;15.50;99.90;;;;;;5076893;28;20497;-81
2021/10/30 00:26:48;;;;;;;12.23;5.67;;;15.50;99.90;;;;;;5073145;28;20461;-82
2021/10/30 00:29:15;;;;;;;16.17;6.20;;;15.50;99.90;;;;;;5074522;28;20463;-81
2021/10/30 00:31:43;;;;;;;21.73;5.93;;;15.50;99.90;;;;;;5077964;28;20485;-81
2021/10/30 00:34:10;;;;;;;15.70;5.03;;;15.50;99.90;;;;;;5075601;28;20560;-82
2021/10/30 00:36:37;;;;;;;11.53;5.80;;;15.40;99.90;;;;;;5074417;28;20556;-83
2021/10/30 00:39:04;;;;;;;11.87;6.27;;;15.40;99.90;;;;;;5085788;28;20936;-81
2021/10/30 00:41:31;;;;;;;15.30;6.47;;;15.40;99.90;;;;;;5069937;28;20472;-81
2021/10/30 00:44:06;;;;;;;11.87;5.20;;;15.40;99.90;;;;;;5067179;28;20866;-81
2021/10/30 00:46:33;;;;;;;12.23;5.20;;;15.40;99.90;;;;;;5080600;28;20456;-81
2021/10/30 00:49:02;;;;;;;8.63;5.10;;;15.40;99.90;;;;;;5073343;28;20459;-81
2021/10/30 00:51:31;;;;;;;10.00;5.70;;;15.30;99.90;;;;;;5079740;28;20448;-81
2021/10/30 00:53:59;;;;;;;8.30;4.70;;;15.30;99.90;;;;;;5068124;28;20518;-81
2021/10/30 00:56:27;;;;;;;7.27;5.23;;;15.30;99.90;;;;;;5080212;28;20544;-82
2021/10/30 00:58:55;;;;;;;13.23;5.50;;;15.30;99.90;;;;;;5080433;28;20468;-82
2021/10/30 01:01:22;;;;;;;5.27;4.53;;;15.30;99.90;;;;;;5081037;28;20492;-81
2021/10/30 01:03:51;;;;;;;8.07;5.10;;;15.30;99.90;;;;;;5079534;28;20493;-80
2021/10/30 01:06:20;;;;;;;10.87;5.10;;;15.20;99.90;;;;;;5080174;28;20472;-80
2021/10/30 01:08:47;;;;;;;8.07;5.80;;;15.20;99.90;;;;;;5075577;28;20456;-81
2021/10/30 01:11:15;;;;;;;9.70;5.07;;;15.30;99.90;;;;;;5080480;28;20540;-84
2021/10/30 01:13:43;;;;;;;7.13;4.80;;;15.20;99.90;;;;;;5076085;28;20480;-83
2021/10/30 01:16:10;;;;;;;8.93;5.10;;;15.20;99.90;;;;;;5080994;28;20460;-83
2021/10/30 01:18:38;;;;;;;8.50;4.60;;;15.20;99.90;;;;;;5077539;28;21078;-81
2021/10/30 01:21:07;;;;;;;8.53;4.77;;;15.20;99.90;;;;;;5076594;28;20964;-83
2021/10/30 01:23:34;;;;;;;11.30;5.23;;;15.20;99.90;;;;;;5077930;28;20477;-81
2021/10/30 01:26:02;;;;;;;7.30;4.90;;;15.20;99.90;;;;;;5082975;28;20463;-82
2021/10/30 01:28:30;;;;;;;11.90;5.83;;;15.20;99.90;;;;;;5078861;28;20459;-81
2021/10/30 01:30:58;;;;;;;9.27;5.30;;;15.20;99.90;;;;;;5077147;28;20481;-81
2021/10/30 01:33:25;;;;;;;10.27;5.93;;;15.20;99.90;;;;;;5081697;28;20496;-81
2021/10/30 01:35:52;;;;;;;6.80;4.83;;;15.20;99.90;;;;;;5079390;28;20476;-84
2021/10/30 01:38:20;;;;;;;11.13;4.17;;;15.20;99.90;;;;;;5077133;28;21023;-84
2021/10/30 01:40:49;;;;;;;11.50;5.57;;;15.20;99.90;;;;;;5076684;28;20460;-82
2021/10/30 01:43:18;;;;;;;7.30;5.30;;;15.20;99.90;;;;;;5081678;28;20483;-82
2021/10/30 01:45:46;;;;;;;6.53;4.83;;;15.20;99.90;;;;;;5081482;28;20517;-82
2021/10/30 01:48:13;;;;;;;9.83;5.37;;;15.20;99.90;;;;;;5081000;28;20464;-82
2021/10/30 01:50:41;;;;;;;14.43;5.83;;;15.20;99.90;;;;;;5080038;28;20459;-81
2021/10/30 01:53:09;;;;;;;6.77;5.27;;;15.20;99.90;;;;;;5079181;28;20453;-81
2021/10/30 01:55:39;;;;;;;6.83;5.60;;;15.20;99.90;;;;;;5081934;28;20462;-81
2021/10/30 01:58:07;;;;;;;12.87;6.47;;;15.10;99.90;;;;;;5076551;28;20464;-81
2021/10/30 02:00:35;;;;;;;9.90;5.40;;;15.10;99.90;;;;;;5081091;28;20479;-84
2021/10/30 02:03:02;;;;;;;11.33;6.20;;;15.10;99.90;;;;;;5073748;28;20488;-81
2021/10/30 02:05:29;;;;;;;9.63;5.00;;;15.10;99.90;;;;;;5076475;28;20546;-81
2021/10/30 02:07:56;;;;;;;7.60;5.47;;;15.10;99.90;;;;;;5082936;28;21017;-82
2021/10/30 02:10:22;;;;;;;6.10;5.50;;;15.10;99.90;;;;;;5077258;28;20464;-82
2021/10/30 02:12:50;;;;;;;7.03;4.80;;;15.10;99.90;;;;;;5081905;28;20466;-82
2021/10/30 02:15:18;;;;;;;7.80;5.40;;;15.10;99.90;;;;;;5080247;28;20490;-82
2021/10/30 02:17:45;;;;;;;6.40;4.53;;;15.10;99.90;;;;;;5075415;28;20451;-81
2021/10/30 02:20:12;;;;;;;9.27;6.20;;;15.10;99.90;;;;;;5080465;28;20476;-81
2021/10/30 02:22:39;;;;;;;10.03;5.77;;;15.10;99.90;;;;;;5076925;28;20936;-81
2021/10/30 02:25:07;;;;;;;7.20;5.67;;;15.10;99.90;;;;;;5081782;28;20493;-82
2021/10/30 02:27:34;;;;;;;10.17;5.03;;;15.00;99.90;;;;;;5072503;28;21046;-81
2021/10/30 02:30:03;;;;;;;11.17;5.67;;;15.00;99.90;;;;;;5078862;28;20474;-81
2021/10/30 02:32:30;;;;;;;7.83;4.90;;;15.00;99.90;;;;;;5078296;28;20579;-83
2021/10/30 02:34:57;;;;;;;7.93;6.00;;;15.00;99.90;;;;;;5078697;28;20465;-84
2021/10/30 02:37:24;;;;;;;15.20;5.90;;;15.00;99.90;;;;;;5076413;28;20495;-82
2021/10/30 02:39:51;;;;;;;10.60;5.20;;;15.00;99.90;;;;;;5079691;28;20496;-82
2021/10/30 02:42:18;;;;;;;4.83;4.10;;;14.90;99.90;;;;;;5080024;28;20461;-82
2021/10/30 02:44:45;;;;;;;14.77;5.40;;;14.90;99.90;;;;;;5078874;28;20492;-83
2021/10/30 02:47:14;;;;;;;12.00;4.93;;;14.90;99.90;;;;;;5077952;28;20460;-82
2021/10/30 02:49:41;;;;;;;10.00;4.20;;;14.90;99.90;;;;;;5077321;28;20486;-81
2021/10/30 02:52:08;;;;;;;6.10;4.90;;;14.90;99.90;;;;;;5073298;28;20453;-81
2021/10/30 02:54:36;;;;;;;6.43;4.53;;;14.90;99.90;;;;;;5082100;28;20465;-81
2021/10/30 02:57:03;;;;;;;6.80;5.37;;;14.90;99.90;;;;;;5080529;28;20551;-82
2021/10/30 02:59:30;;;;;;;6.17;4.83;;;14.90;99.90;;;;;;5082877;28;20461;-81
2021/10/30 03:01:57;;;;;;;4.80;4.37;;;15.00;99.90;;;;;;5082291;28;20486;-82
2021/10/30 03:04:25;;;;;;;5.07;4.60;;;15.00;99.90;;;;;;5074729;28;20500;-82
2021/10/30 03:06:53;;;;;;;5.17;4.60;;;14.90;99.90;;;;;;5079015;28;20491;-84
2021/10/30 03:09:20;;;;;;;6.30;4.37;;;15.00;99.90;;;;;;5083156;28;20944;-81
2021/10/30 03:11:47;;;;;;;5.03;4.20;;;15.00;99.90;;;;;;5082616;28;20477;-82
2021/10/30 03:14:14;;;;;;;5.10;4.47;;;15.00;99.90;;;;;;5083707;28;21037;-83
2021/10/30 03:16:41;;;;;;;5.87;4.10;;;15.00;99.90;;;;;;5080880;28;20547;-81
2021/10/30 03:19:08;;;;;;;8.13;5.13;;;15.00;99.90;;;;;;5076871;28;20458;-83
2021/10/30 03:21:37;;;;;;;6.00;3.83;;;15.00;99.90;;;;;;5077798;28;20464;-84
2021/10/30 03:24:04;;;;;;;7.50;4.50;;;15.00;99.90;;;;;;5084820;28;20493;-83
2021/10/30 03:26:31;;;;;;;7.30;4.70;;;15.00;99.90;;;;;;5078957;28;20455;-81
2021/10/30 03:28:58;;;;;;;9.70;5.60;;;15.00;99.90;;;;;;5077481;28;20564;-81
2021/10/30 03:31:25;;;;;;;5.60;4.80;;;15.00;99.90;;;;;;5075502;28;21435;-83
2021/10/30 03:33:52;;;;;;;7.87;6.17;;;15.00;99.90;;;;;;5073616;28;21043;-83
2021/10/30 03:36:19;;;;;;;12.20;4.90;;;15.00;99.90;;;;;;5076142;28;20968;-81
2021/10/30 03:38:47;;;;;;;7.47;5.50;;;14.90;99.90;;;;;;5076307;28;20470;-81
2021/10/30 03:41:14;;;;;;;6.93;4.93;;;14.90;99.90;;;;;;5076703;28;20492;-80
2021/10/30 03:43:41;;;;;;;11.47;4.80;;;14.90;99.90;;;;;;5076923;28;20482;-80
2021/10/30 03:46:08;;;;;;;6.90;5.00;;;14.90;99.90;;;;;;5072348;28;20848;-81
2021/10/30 03:48:35;;;;;;;5.97;5.00;;;14.90;99.90;;;;;;5077548;28;20904;-82
2021/10/30 03:51:02;;;;;;;8.70;5.80;;;14.90;99.90;;;;;;5077953;28;20801;-81
2021/10/30 03:53:29;;;;;;;7.97;5.40;;;14.90;99.90;;;;;;5078926;28;20465;-82
2021/10/30 03:55:57;;;;;;;10.03;4.83;;;14.90;99.90;;;;;;5075764;28;20468;-82
2021/10/30 03:58:24;;;;;;;6.67;5.77;;;14.80;99.90;;;;;;5067828;28;20463;-81
2021/10/30 04:00:52;;;;;;;5.60;5.10;;;14.80;99.90;;;;;;5079456;28;20568;-80
2021/10/30 04:03:19;;;;;;;8.10;5.10;;;14.80;99.90;;;;;;5070611;28;20820;-81
2021/10/30 04:05:46;;;;;;;5.03;4.43;;;14.80;99.90;;;;;;5071707;28;20495;-81
2021/10/30 04:08:18;;;;;;;7.03;5.00;;;14.80;99.90;;;;;;5074291;28;20451;-82
2021/10/30 04:10:45;;;;;;;5.67;5.03;;;14.80;99.90;;;;;;5078790;28;20464;-81
2021/10/30 04:13:14;;;;;;;8.00;5.10;;;14.70;99.90;;;;;;5070531;28;20454;-82
2021/10/30 04:15:41;;;;;;;7.80;5.40;;;14.70;99.90;;;;;;5078253;28;20491;-82
2021/10/30 04:18:08;;;;;;;8.13;5.43;;;14.60;99.90;;;;;;5073565;28;20461;-82
2021/10/30 04:20:35;;;;;;;9.97;5.40;;;14.60;99.90;;;;;;5078185;28;20935;-81
2021/10/30 04:23:03;;;;;;;10.40;5.60;;;14.50;99.90;;;;;;5074137;28;20460;-81
2021/10/30 04:25:30;;;;;;;10.23;5.60;;;14.50;99.90;;;;;;5082592;28;20483;-82
2021/10/30 04:27:57;;;;;;;9.63;6.10;;;14.50;99.90;;;;;;5078477;28;20450;-82
2021/10/30 04:30:27;;;;;;;5.47;4.97;;;14.40;99.90;;;;;;5075936;28;20468;-82
2021/10/30 04:32:54;;;;;;;6.97;5.30;;;14.40;99.90;;;;;;5076371;28;21056;-84
2021/10/30 04:35:22;;;;;;;7.97;5.43;;;14.30;99.90;;;;;;5083649;28;20456;-84
2021/10/30 04:37:49;;;;;;;8.43;6.47;;;14.30;99.90;;;;;;5086574;28;20454;-81
2021/10/30 04:40:17;;;;;;;8.90;5.43;;;14.30;99.90;;;;;;5079184;28;20459;-81
2021/10/30 04:42:44;;;;;;;9.60;5.50;;;14.20;99.90;;;;;;5077835;28;20461;-81
2021/10/30 04:45:11;;;;;;;6.83;5.37;;;14.20;99.90;;;;;;5079728;28;20846;-83
2021/10/30 04:47:40;;;;;;;9.00;6.20;;;14.20;99.90;;;;;;5082279;28;20460;-82
2021/10/30 04:50:07;;;;;;;6.20;5.60;;;14.10;99.90;;;;;;5075047;28;20450;-81
2021/10/30 04:52:34;;;;;;;12.33;7.10;;;14.10;99.90;;;;;;5087539;28;20455;-83
2021/10/30 04:55:01;;;;;;;7.23;5.33;;;14.10;99.90;;;;;;5084044;28;20526;-81
2021/10/30 04:57:28;;;;;;;10.80;6.17;;;14.10;99.90;;;;;;5075116;28;20464;-82
2021/10/30 04:59:55;;;;;;;8.87;5.70;;;14.10;99.90;;;;;;5079395;28;20462;-83
2021/10/30 05:02:21;;;;;;;7.93;6.47;;;14.00;99.90;;;;;;5082875;28;20460;-81
2021/10/30 05:04:50;;;;;;;9.37;5.30;;;14.00;99.90;;;;;;5083626;28;20494;-82
2021/10/30 05:07:17;;;;;;;6.20;5.33;;;14.00;99.90;;;;;;5082267;28;20466;-81
2021/10/30 05:09:44;;;;;;;6.70;5.90;;;14.00;99.90;;;;;;5080171;28;20851;-82
2021/10/30 05:12:12;;;;;;;8.40;5.30;;;14.00;99.90;;;;;;5079500;28;20451;-82
2021/10/30 05:14:39;;;;;;;9.43;5.83;;;14.00;99.90;;;;;;5083455;28;20926;-81
2021/10/30 05:17:06;;;;;;;8.93;6.00;;;14.00;99.90;;;;;;5082537;28;20465;-82
2021/10/30 05:19:33;;;;;;;7.70;5.87;;;14.00;99.90;;;;;;5084783;28;20466;-82
2021/10/30 05:22:01;;;;;;;7.70;6.00;;;14.00;99.90;;;;;;5079454;28;20455;-83
2021/10/30 05:24:28;;;;;;;12.10;8.37;;;14.00;99.90;;;;;;5077890;28;20483;-82
2021/10/30 05:26:55;;;;;;;7.97;6.20;;;13.90;99.90;;;;;;5079693;28;20482;-82
2021/10/30 05:29:22;;;;;;;12.80;5.97;;;13.90;99.90;;;;;;5082974;28;20459;-82
2021/10/30 05:31:49;;;;;;;8.30;5.97;;;13.90;99.90;;;;;;5080030;28;20472;-82
2021/10/30 05:34:16;;;;;;;10.43;5.70;;;13.90;99.90;;;;;;5079773;28;20455;-82
2021/10/30 05:36:43;;;;;;;7.77;5.90;;;13.90;99.90;;;;;;5079181;28;20465;-81
2021/10/30 05:39:16;;;;;;;8.37;5.17;;;13.90;99.90;;;;;;5081271;28;21048;-82
2021/10/30 05:41:43;;;;;;;6.73;5.23;;;13.90;99.90;;;;;;5076802;28;20976;-81
2021/10/30 05:44:11;;;;;;;7.63;5.63;;;13.90;99.90;;;;;;5087267;28;20505;-81
2021/10/30 05:46:38;;;;;;;6.93;5.07;;;13.90;99.90;;;;;;5079476;28;20821;-82
2021/10/30 05:49:07;;;;;;;8.90;5.07;;;13.90;99.90;;;;;;5079653;28;20468;-82
2021/10/30 05:51:34;;;;;;;6.77;4.63;;;13.90;99.90;;;;;;5080625;28;20543;-82
2021/10/30 05:54:01;;;;;;;8.40;5.67;;;13.90;99.90;;;;;;5079263;28;20462;-82
2021/10/30 05:56:30;;;;;;;4.57;4.10;;;13.90;99.90;;;;;;5080214;28;20938;-80
2021/10/30 05:58:57;;;;;;;8.43;4.40;;;13.90;99.90;;;;;;5073787;28;21024;-82
2021/10/30 06:01:25;;;;;;;7.90;3.77;;;14.00;99.90;;;;;;5071669;28;20853;-82
2021/10/30 06:03:53;;;;;;;5.53;4.27;;;13.90;99.90;;;;;;5081168;28;20446;-81
2021/10/30 06:06:20;;;;;;;4.87;4.00;;;14.00;99.90;;;;;;5082715;28;20459;-81
2021/10/30 06:08:47;;;;;;;9.27;4.20;;;14.00;99.90;;;;;;5082298;28;21254;-83
2021/10/30 06:11:14;;;;;;;4.83;4.33;;;14.00;99.90;;;;;;5081057;28;20467;-82
2021/10/30 06:13:43;;;;;;;4.43;3.90;;;14.00;99.90;;;;;;5081504;28;20549;-82
2021/10/30 06:16:10;;;;;;;6.67;4.50;;;14.00;99.90;;;;;;5079291;28;20463;-82
2021/10/30 06:18:37;;;;;;;5.40;3.80;;;14.00;99.90;;;;;;5073825;28;21052;-82
2021/10/30 06:21:04;;;;;;;5.60;4.20;;;14.00;99.90;;;;;;5075959;28;20527;-81
2021/10/30 06:23:30;;;;;;;10.30;3.50;;;14.00;99.90;;;;;;5071870;28;20806;-81
2021/10/30 06:25:57;;;;;;;3.50;3.20;;;14.00;99.90;;;;;;5079028;28;20988;-81
2021/10/30 06:28:24;;;;;;;4.20;3.90;;;14.00;99.90;;;;;;5075600;28;20455;-81
2021/10/30 06:30:52;;;;;;;4.10;3.70;;;14.00;99.90;;;;;;5071254;28;20466;-82
2021/10/30 06:33:20;;;;;;;4.97;3.93;;;14.10;99.90;;;;;;5075933;28;20565;-82
2021/10/30 06:35:46;;;;;;;5.20;4.30;;;14.00;99.90;;;;;;5076045;28;20466;-81
2021/10/30 06:38:14;;;;;;;6.30;4.27;;;14.00;99.90;;;;;;5083042;28;20888;-81
2021/10/30 06:40:41;;;;;;;4.43;3.87;;;14.10;99.90;;;;;;5080984;28;20454;-82
2021/10/30 06:43:08;;;;;;;3.87;3.47;;;14.10;99.90;;;;;;5076376;28;20972;-82
2021/10/30 06:45:34;;;;;;;6.30;4.13;;;14.10;99.90;;;;;;5073349;28;20485;-81
2021/10/30 06:48:03;;;;;;;7.37;4.10;;;14.10;99.90;;;;;;5070691;28;20459;-82
2021/10/30 06:50:31;;;;;;;6.10;4.00;;;14.10;99.90;;;;;;5073484;28;21793;-81
2021/10/30 06:52:58;;;;;;;5.50;3.93;;;14.10;99.90;;;;;;5077139;28;20468;-81
2021/10/30 06:55:25;;;;;;;10.20;4.03;;;14.10;99.90;;;;;;5071978;28;20463;-82
2021/10/30 06:57:52;;;;;;;5.60;3.20;;;14.10;99.90;;;;;;5069802;28;20474;-81
2021/10/30 07:00:19;;;;;;;4.40;3.67;;;14.20;99.90;;;;;;5071684;28;20486;-83
2021/10/30 07:02:51;;;;;;;5.83;3.40;;;14.20;99.90;;;;;;5069965;28;20453;-81
2021/10/30 07:05:21;;;;;;;11.73;3.80;;;14.20;99.90;;;;;;5073548;28;20870;-82
2021/10/30 07:07:48;;;;;;;5.67;3.30;;;14.20;99.90;;;;;;5078815;28;20497;-81
2021/10/30 07:10:15;;;;;;;5.47;3.60;;;14.20;99.90;;;;;;5078805;28;21022;-83
2021/10/30 07:12:42;;;;;;;4.07;3.67;;;14.20;99.90;;;;;;5076128;28;20465;-82
2021/10/30 07:15:11;;;;;;;4.60;4.07;;;14.20;99.90;;;;;;5070647;28;20469;-81
2021/10/30 07:17:38;;;;;;;4.70;3.40;;;14.20;99.90;;;;;;5075816;28;20467;-81
2021/10/30 07:20:06;;;;;;;5.83;3.73;;;14.20;99.90;;;;;;5081573;28;20476;-83
2021/10/30 07:22:40;;;;;;;3.00;2.70;;;14.20;99.90;;;;;;5075869;28;21031;-82
2021/10/30 07:25:08;;;;;;;4.27;3.70;;;14.20;99.90;;;;;;5071730;28;20488;-82
2021/10/30 07:27:35;;;;;;;5.87;3.83;;;14.20;99.90;;;;;;5075672;28;20470;-81
2021/10/30 07:30:02;;;;;;;4.77;3.00;;;14.30;99.90;;;;;;5073121;28;20467;-81
2021/10/30 07:32:29;;;;;;;8.60;3.90;;;14.30;99.90;;;;;;5075500;28;20474;-82
2021/10/30 07:34:55;;;;;;;6.30;3.10;;;14.30;99.90;;;;;;5072398;28;20579;-81
2021/10/30 07:37:22;;;;;;;5.03;2.90;;;14.30;99.90;;;;;;5079893;28;20462;-82
2021/10/30 07:39:51;;;;;;;3.80;3.40;;;14.30;99.90;;;;;;5073115;28;20465;-83
2021/10/30 07:42:19;;;;;;;4.00;2.90;;;14.30;99.90;;;;;;5076689;28;20454;-81
2021/10/30 07:44:46;;;;;;;3.60;3.17;;;14.40;99.90;;;;;;5078001;28;20478;-81
2021/10/30 07:47:13;;;;;;;5.83;3.70;;;14.40;99.90;;;;;;5073094;28;20514;-81
2021/10/30 07:49:41;;;;;;;4.60;3.50;;;14.40;99.90;;;;;;5081676;28;20477;-81
2021/10/30 07:52:10;;;;;;;3.30;3.00;;;14.40;99.90;;;;;;5084252;28;20476;-81
2021/10/30 07:54:37;;;;;;;3.47;3.07;;;14.40;99.90;;;;;;5078741;28;20455;-82
2021/10/30 07:57:07;;;;;;;5.57;2.87;;;14.40;99.90;;;;;;5074919;28;20821;-81
2021/10/30 07:59:34;;;;;;;9.13;4.43;;;14.40;99.90;;;;;;5076779;28;20470;-83
2021/10/30 08:02:02;;;;;;;3.27;2.97;;;14.50;99.90;;;;;;5080293;28;20987;-81
2021/10/30 08:04:29;;;;;;;3.13;2.83;;;14.50;99.90;;;;;;5080179;28;20457;-83
2021/10/30 08:06:57;;;;;;;4.00;2.80;;;14.50;99.90;;;;;;5078050;28;20543;-81
2021/10/30 08:09:24;;;;;;;5.57;3.10;;;14.50;99.90;;;;;;5082522;28;20461;-81
2021/10/30 08:11:51;;;;;;;5.20;2.90;;;14.50;99.90;;;;;;5085293;28;20458;-81
2021/10/30 08:14:19;;;;;;;4.00;3.60;;;14.50;99.90;;;;;;5084880;28;20454;-81
2021/10/30 08:16:46;;;;;;;3.80;2.80;;;14.60;99.90;;;;;;5082007;28;20466;-81
2021/10/30 08:19:13;;;;;;;7.20;3.20;;;14.60;99.90;;;;;;5079316;28;20475;-81
2021/10/30 08:21:39;;;;;;;7.93;3.07;;;14.60;99.90;;;;;;5084096;28;20466;-81
2021/10/30 08:24:06;;;;;;;5.83;3.33;;;14.60;99.90;;;;;;5082570;28;20482;-82
2021/10/30 08:26:34;;;;;;;4.20;3.17;;;14.70;99.90;;;;;;5085439;28;20491;-81
2021/10/30 08:29:03;;;;;;;5.30;3.37;;;14.70;99.90;;;;;;5077220;28;20506;-81
2021/10/30 08:31:31;;;;;;;6.30;3.37;;;14.70;99.90;;;;;;5084066;28;20492;-80
2021/10/30 08:33:58;;;;;;;6.67;3.73;;;14.70;99.90;;;;;;5078860;28;20470;-82
2021/10/30 08:36:26;;;;;;;3.47;3.17;;;14.70;99.90;;;;;;5076881;28;20468;-83
2021/10/30 08:38:53;;;;;;;6.53;3.00;;;14.80;99.90;;;;;;5075352;28;20464;-82
2021/10/30 08:41:20;;;;;;;3.60;2.80;;;14.80;99.90;;;;;;5074175;28;20482;-83
2021/10/30 08:43:49;;;;;;;6.27;3.23;;;14.80;99.90;;;;;;5077013;28;20489;-83
2021/10/30 08:46:16;;;;;;;5.03;3.60;;;14.80;99.90;;;;;;5074537;28;20574;-81
2021/10/30 08:48:46;;;;;;;3.53;3.20;;;14.80;99.90;;;;;;5070996;28;20966;-82
2021/10/30 08:51:13;;;;;;;5.23;3.30;;;14.80;99.90;;;;;;5071670;28;20488;-82
2021/10/30 08:53:40;;;;;;;3.63;3.00;;;14.90;99.90;;;;;;5078884;28;20820;-81
2021/10/30 08:56:08;;;;;;;4.80;3.63;;;14.80;99.90;;;;;;5081130;28;20461;-82
2021/10/30 08:58:35;;;;;;;3.40;2.70;;;14.90;99.90;;;;;;5079910;28;20461;-80
2021/10/30 09:01:05;;;;;;;3.30;2.87;;;14.90;99.90;;;;;;5074431;28;20492;-82
2021/10/30 09:03:32;;;;;;;3.70;2.70;;;14.90;99.90;;;;;;5076053;28;20474;-80
2021/10/30 09:06:01;;;;;;;3.40;2.80;;;14.90;99.90;;;;;;5073986;28;20493;-83
2021/10/30 09:08:29;;;;;;;5.40;2.43;;;14.90;99.90;;;;;;5076725;28;20501;-82
2021/10/30 09:10:58;;;;;;;6.23;2.90;;;14.90;99.90;;;;;;5082041;28;20462;-82
2021/10/30 09:13:30;;;;;;;7.63;2.83;;;14.90;99.90;;;;;;5074579;28;20475;-84
2021/10/30 09:15:58;;;;;;;4.50;2.43;;;14.90;99.90;;;;;;5076458;28;20469;-83
2021/10/30 09:18:29;;;;;;;8.30;3.10;;;14.90;99.90;;;;;;5077158;28;20475;-81
2021/10/30 09:20:57;;;;;;;2.93;2.20;;;14.90;99.90;;;;;;5076047;28;20468;-83
2021/10/30 09:23:28;;;;;;;2.83;2.50;;;14.90;99.90;;;;;;5079280;28;20465;-82
2021/10/30 09:25:58;;;;;;;3.50;2.70;;;15.00;99.90;;;;;;5079379;28;20479;-82
2021/10/30 09:28:26;;;;;;;8.97;2.90;;;15.00;99.90;;;;;;5073879;28;20467;-81
2021/10/30 09:31:00;;;;;;;3.20;2.67;;;15.00;99.90;;;;;;5074110;28;20463;-81
2021/10/30 09:33:28;;;;;;;5.30;2.40;;;14.90;99.90;;;;;;5073217;28;20474;-82
2021/10/30 09:35:56;;;;;;;5.00;2.60;;;15.00;99.90;;;;;;5081025;28;20477;-82
2021/10/30 09:38:34;;;;;;;3.73;2.90;;;15.00;99.90;;;;;;5079580;28;20466;-80
2021/10/30 09:41:03;;;;;;;3.50;2.10;;;15.00;99.90;;;;;;5082024;28;20501;-81
2021/10/30 09:43:30;;;;;;;3.20;2.23;;;15.00;99.90;;;;;;5086015;28;20451;-80
2021/10/30 09:46:05;;;;;;;3.10;2.33;;;15.00;99.90;;;;;;5077401;28;20516;-81
2021/10/30 09:48:33;;;;;;;2.13;1.93;;;15.00;99.90;;;;;;5080630;28;20801;-81
2021/10/30 09:51:02;;;;;;;3.70;2.40;;;15.00;99.90;;;;;;5081299;28;20966;-82
2021/10/30 09:53:36;;;;;;;5.40;2.53;;;15.10;99.90;;;;;;5079572;28;20452;-82
2021/10/30 09:56:05;;;;;;;3.03;2.57;;;15.00;99.90;;;;;;5086076;28;20543;-80
2021/10/30 09:58:43;;;;;;;5.57;2.50;;;15.10;99.90;;;;;;5080139;28;20546;-81
2021/10/30 10:01:12;;;;;;;6.57;2.70;;;15.10;99.90;;;;;;5077461;28;20928;-81
2021/10/30 10:03:41;;;;;;;3.80;2.67;;;15.10;99.90;;;;;;5072323;28;20469;-81
2021/10/30 10:06:10;;;;;;;3.90;2.30;;;15.10;99.90;;;;;;5073137;28;20575;-81
2021/10/30 10:08:40;;;;;;;2.40;2.10;;;15.10;99.90;;;;;;5075477;28;20465;-81
2021/10/30 10:11:09;;;;;;;2.80;2.30;;;15.10;99.90;;;;;;5070253;28;20867;-81
2021/10/30 10:13:40;;;;;;;3.97;3.57;;;15.10;99.90;;;;;;5072131;28;20461;-83
2021/10/30 10:16:12;;;;;;;3.10;2.07;;;15.10;99.90;;;;;;5078502;28;20487;-81
2021/10/30 10:18:39;;;;;;;4.97;2.50;;;15.10;99.90;;;;;;5071566;28;20456;-81
2021/10/30 10:21:07;;;;;;;4.30;2.20;;;15.10;99.90;;;;;;5076104;28;20490;-80
2021/10/30 10:23:35;;;;;;;7.63;2.80;;;15.10;99.90;;;;;;5069928;28;20483;-80
2021/10/30 10:26:03;;;;;;;3.70;2.97;;;15.10;99.90;;;;;;5077910;28;20478;-81
2021/10/30 10:28:34;;;;;;;4.70;2.67;;;15.10;99.90;;;;;;5086770;28;20482;-81
2021/10/30 10:31:07;;;;;;;4.40;2.87;;;15.10;99.90;;;;;;5082051;28;20520;-83
2021/10/30 10:33:34;;;;;;;2.50;2.23;;;15.10;99.90;;;;;;5079364;28;20471;-82
2021/10/30 10:36:25;;;;;;;2.60;2.23;;;15.10;99.90;;;;;;5078504;28;20460;-81
2021/10/30 10:39:18;;;;;;;4.03;2.30;;;15.10;99.90;;;;;;5077892;28;20468;-82
2021/10/30 10:41:58;;;;;;;2.40;2.20;;;15.10;99.90;;;;;;5075069;28;20458;-83
2021/10/30 10:44:58;;;;;;;3.00;2.30;;;15.10;99.90;;;;;;5074503;28;20493;-81
2021/10/30 10:48:04;;;;;;;2.80;2.23;;;15.10;99.90;;;;;;5067222;28;20477;-81
2021/10/30 10:50:42;;;;;;;7.67;2.40;;;15.10;99.90;;;;;;5075975;28;20467;-81
2021/10/30 10:53:34;;;;;;;2.53;2.33;;;15.10;99.90;;;;;;5073289;28;20512;-82
2021/10/30 10:56:18;;;;;;;3.40;2.23;;;15.10;99.90;;;;;;5073863;28;21014;-83
2021/10/30 10:59:13;;;;;;;2.23;2.00;;;15.10;99.90;;;;;;5069982;28;20483;-81
2021/10/30 11:02:12;;;;;;;4.73;3.20;;;15.10;99.90;;;;;;5074765;28;20516;-80
2021/10/30 11:04:39;;;;;;;2.90;2.30;;;15.00;99.90;;;;;;5066214;28;20888;-81
2021/10/30 11:07:17;;;;;;;3.20;2.27;;;15.10;99.90;;;;;;5074879;28;20992;-81
2021/10/30 11:10:01;;;;;;;11.20;2.50;;;15.10;99.90;;;;;;5075980;28;20454;-82
2021/10/30 11:12:36;;;;;;;2.70;2.33;;;15.10;99.90;;;;;;5071642;28;20465;-83
2021/10/30 11:15:52;;;;;;;7.53;2.30;;;15.10;99.90;;;;;;5068017;28;20447;-81
2021/10/30 11:18:30;;;;;;;2.90;2.70;;;15.10;99.90;;;;;;5065333;28;20464;-82
2021/10/30 11:21:14;;;;;;;4.10;2.80;;;15.10;99.90;;;;;;5078134;28;20462;-83
2021/10/30 11:23:46;;;;;;;3.77;2.53;;;15.10;99.90;;;;;;5075331;28;20468;-82
2021/10/30 11:26:18;;;;;;;3.10;2.40;;;15.10;99.90;;;;;;5074464;28;20541;-83
2021/10/30 11:28:45;;;;;;;3.63;2.50;;;15.10;99.90;;;;;;5076393;28;20898;-81
2021/10/30 11:31:15;;;;;;;3.30;2.90;;;15.10;99.90;;;;;;5070572;28;20497;-81
2021/10/30 11:33:42;;;;;;;2.53;2.33;;;15.10;99.90;;;;;;5075509;28;20464;-81
2021/10/30 11:36:11;;;;;;;2.57;2.20;;;15.10;99.90;;;;;;5077502;28;20478;-80
2021/10/30 11:38:40;;;;;;;3.00;2.70;;;15.10;99.90;;;;;;5073164;28;20460;-82
2021/10/30 11:41:08;;;;;;;3.20;2.63;;;15.10;99.90;;;;;;5075154;28;20484;-81
2021/10/30 11:43:37;;;;;;;2.77;2.53;;;15.10;99.90;;;;;;5074776;28;20556;-81
2021/10/30 11:46:06;;;;;;;2.80;2.40;;;15.00;99.90;;;;;;5076887;28;20482;-81
2021/10/30 11:48:39;;;;;;;2.93;2.73;;;15.00;99.90;;;;;;5075845;28;20463;-81
2021/10/30 11:51:10;;;;;;;4.63;2.60;;;15.00;99.90;;;;;;5075157;28;20554;-82
2021/10/30 11:53:39;;;;;;;2.83;2.33;;;15.00;99.90;;;;;;5071574;28;20465;-80
2021/10/30 11:56:09;;;;;;;3.20;2.53;;;15.10;99.90;;;;;;5075951;28;20541;-82
2021/10/30 11:58:41;;;;;;;3.40;2.43;;;15.10;99.90;;;;;;5072740;28;21170;-82
2021/10/30 12:01:23;;;;;;;3.30;2.40;;;15.10;99.90;;;;;;5079005;28;20484;-83
2021/10/30 12:03:53;;;;;;;2.90;2.60;;;15.00;99.90;;;;;;5075919;28;20470;-81
2021/10/30 12:06:20;;;;;;;3.40;1.90;;;15.10;99.90;;;;;;5072240;28;20483;-81
2021/10/30 12:08:47;;;;;;;2.50;2.30;;;15.10;99.90;;;;;;5076665;28;20467;-81
2021/10/30 12:11:14;;;;;;;2.47;2.17;;;15.10;99.90;;;;;;5078396;28;20479;-81
2021/10/30 12:13:45;;;;;;;4.87;2.80;;;15.10;99.90;;;;;;5080460;28;20452;-83
2021/10/30 12:16:12;;;;;;;3.20;2.20;;;15.10;99.90;;;;;;5084201;28;20463;-82
2021/10/30 12:18:39;;;;;;;2.90;2.30;;;15.10;99.90;;;;;;5074244;28;20469;-83
2021/10/30 12:21:11;;;;;;;1.97;1.77;;;15.10;99.90;;;;;;5079337;28;20549;-81
2021/10/30 12:23:56;;;;;;;4.03;2.37;;;15.10;99.90;;;;;;5072548;28;20459;-81
2021/10/30 12:26:23;;;;;;;1.77;1.67;;;15.10;99.90;;;;;;5070087;28;20472;-82
2021/10/30 12:28:50;;;;;;;3.83;2.20;;;15.10;99.90;;;;;;5075613;28;20478;-82
2021/10/30 12:31:28;;;;;;;2.63;2.13;;;15.10;99.90;;;;;;5076963;28;20497;-82
2021/10/30 12:33:57;;;;;;;5.37;3.00;;;15.10;99.90;;;;;;5074513;28;20460;-83
2021/10/30 12:36:27;;;;;;;5.60;2.40;;;15.20;99.90;;;;;;5075634;28;20472;-82
2021/10/30 12:38:54;;;;;;;4.33;2.30;;;15.30;99.90;;;;;;5077740;28;20467;-83
2021/10/30 12:41:29;;;;;;;6.67;2.50;;;15.30;99.90;;;;;;5075813;28;20594;-84
2021/10/30 12:43:59;;;;;;;2.87;1.87;;;15.40;99.90;;;;;;5069029;28;20500;-82
2021/10/30 12:46:26;;;;;;;8.30;2.33;;;15.40;99.90;;;;;;5077888;28;20966;-83
2021/10/30 12:48:53;;;;;;;2.97;2.33;;;15.40;99.90;;;;;;5079917;28;20525;-83
2021/10/30 12:51:22;;;;;;;4.53;1.97;;;15.50;99.90;;;;;;5071024;28;20469;-84
2021/10/30 12:53:53;;;;;;;4.70;3.27;;;15.50;99.90;;;;;;5072554;28;20937;-84
2021/10/30 12:56:21;;;;;;;2.70;2.03;;;15.40;99.90;;;;;;5079033;28;20555;-81